JST514 YMML-YSSY
Flight info
| Callsign | JST514 |
|---|---|
| Flight time | 1h 8m |
| Altitude | 37000 |
| Route | DOSEL2/34 DOSEL Y59 RIVET |
| Aircraft | A321/M-SDE3FGHIRWY/LB1 |
Departure
| Time | 2026-05-04 07:40 |
|---|---|
| Airport | Melbourne Airport (YMML) |
Arrival
| Time | 2026-05-04 08:48 |
|---|---|
| Airport | Sydney Kingsford Smith International Airport (YSSY) |
| Time | Latitude | Longitude | Altitude | Speed | Heading |
|---|---|---|---|---|---|
| 2026-05-04 06:57 | -37.67643 | 144.84802 | 350 ft | 0 kts | 351° |
| 2026-05-04 07:01 | -37.67644 | 144.84802 | 350 ft | 0 kts | 351° |
| 2026-05-04 07:12 | -37.67645 | 144.84802 | 350 ft | 0 kts | 351° |
| 2026-05-04 07:22 | -37.67646 | 144.84802 | 350 ft | 0 kts | 351° |
| 2026-05-04 07:28 | -37.67650 | 144.84803 | 355 ft | 0 kts | 351° |
| 2026-05-04 07:29 | -37.67664 | 144.84806 | 356 ft | 3 kts | 351° |
| 2026-05-04 07:29 | -37.67683 | 144.84809 | 354 ft | 3 kts | 351° |
| 2026-05-04 07:29 | -37.67702 | 144.84816 | 351 ft | 3 kts | 308° |
| 2026-05-04 07:30 | -37.67712 | 144.84836 | 353 ft | 3 kts | 288° |
| 2026-05-04 07:30 | -37.67714 | 144.84848 | 354 ft | 0 kts | 267° |
| 2026-05-04 07:33 | -37.67719 | 144.84827 | 353 ft | 4 kts | 253° |
| 2026-05-04 07:33 | -37.67731 | 144.84745 | 349 ft | 14 kts | 260° |
| 2026-05-04 07:33 | -37.67757 | 144.84629 | 358 ft | 12 kts | 236° |
| 2026-05-04 07:33 | -37.67820 | 144.84555 | 353 ft | 12 kts | 248° |
| 2026-05-04 07:34 | -37.67835 | 144.84446 | 350 ft | 13 kts | 261° |
| 2026-05-04 07:34 | -37.67846 | 144.84351 | 357 ft | 11 kts | 261° |
| 2026-05-04 07:34 | -37.67857 | 144.84263 | 356 ft | 7 kts | 263° |
| 2026-05-04 07:34 | -37.67858 | 144.84258 | 355 ft | 0 kts | 262° |
| 2026-05-04 07:38 | -37.67872 | 144.84130 | 360 ft | 1 kts | 262° |
| 2026-05-04 07:38 | -37.67876 | 144.84033 | 351 ft | 19 kts | 274° |
| 2026-05-04 07:38 | -37.67813 | 144.83957 | 358 ft | 3 kts | 347° |
| 2026-05-04 07:38 | -37.67809 | 144.83956 | 358 ft | 0 kts | 349° |
| 2026-05-04 07:39 | -37.67805 | 144.83955 | 359 ft | 5 kts | 349° |
| 2026-05-04 07:39 | -37.67514 | 144.83899 | 368 ft | 79 kts | 351° |
| 2026-05-04 07:39 | -37.66753 | 144.83758 | 392 ft | 138 kts | 354° |
| 2026-05-04 07:39 | -37.65732 | 144.83579 | 851 ft | 153 kts | 353° |
| 2026-05-04 07:40 | -37.64677 | 144.83374 | 1627 ft | 153 kts | 349° |
| 2026-05-04 07:40 | -37.63626 | 144.83162 | 2261 ft | 157 kts | 346° |
| 2026-05-04 07:40 | -37.62481 | 144.82924 | 2508 ft | 178 kts | 347° |
| 2026-05-04 07:40 | -37.61200 | 144.82671 | 2936 ft | 188 kts | 346° |
| 2026-05-04 07:41 | -37.59979 | 144.82450 | 3890 ft | 168 kts | 346° |
| 2026-05-04 07:41 | -37.58783 | 144.82548 | 4435 ft | 181 kts | 5° |
| 2026-05-04 07:41 | -37.57582 | 144.83201 | 4937 ft | 194 kts | 16° |
| 2026-05-04 07:41 | -37.56296 | 144.83982 | 5126 ft | 217 kts | 17° |
| 2026-05-04 07:42 | -37.54845 | 144.84848 | 5381 ft | 244 kts | 18° |
| 2026-05-04 07:42 | -37.53260 | 144.85801 | 5956 ft | 259 kts | 18° |
| 2026-05-04 07:42 | -37.51597 | 144.86696 | 6711 ft | 259 kts | 7° |
| 2026-05-04 07:42 | -37.49847 | 144.86861 | 7452 ft | 257 kts | 353° |
| 2026-05-04 07:43 | -37.48056 | 144.86779 | 8262 ft | 259 kts | 352° |
| 2026-05-04 07:43 | -37.46237 | 144.86670 | 9062 ft | 264 kts | 352° |
| 2026-05-04 07:43 | -37.44384 | 144.86560 | 9852 ft | 269 kts | 352° |
| 2026-05-04 07:43 | -37.42472 | 144.86443 | 10329 ft | 285 kts | 352° |
| 2026-05-04 07:44 | -37.40413 | 144.86299 | 10579 ft | 307 kts | 352° |
| 2026-05-04 07:44 | -37.38220 | 144.86383 | 11083 ft | 325 kts | 6° |
| 2026-05-04 07:44 | -37.36087 | 144.87502 | 11722 ft | 344 kts | 30° |
| 2026-05-04 07:44 | -37.34438 | 144.89750 | 12402 ft | 361 kts | 56° |
| 2026-05-04 07:45 | -37.33341 | 144.92626 | 13155 ft | 367 kts | 62° |
| 2026-05-04 07:45 | -37.32293 | 144.95569 | 13864 ft | 371 kts | 62° |
| 2026-05-04 07:45 | -37.31243 | 144.98553 | 14507 ft | 375 kts | 62° |
| 2026-05-04 07:45 | -37.30187 | 145.01561 | 15169 ft | 378 kts | 62° |
| 2026-05-04 07:46 | -37.29117 | 145.04589 | 15843 ft | 381 kts | 62° |
| 2026-05-04 07:46 | -37.28028 | 145.07641 | 16528 ft | 384 kts | 62° |
| 2026-05-04 07:46 | -37.26925 | 145.10709 | 17218 ft | 387 kts | 62° |
| 2026-05-04 07:46 | -37.25809 | 145.13806 | 17890 ft | 391 kts | 62° |
| 2026-05-04 07:47 | -37.24683 | 145.16926 | 18510 ft | 394 kts | 62° |
| 2026-05-04 07:47 | -37.23548 | 145.20072 | 19079 ft | 397 kts | 62° |
| 2026-05-04 07:47 | -37.22405 | 145.23240 | 19669 ft | 400 kts | 62° |
| 2026-05-04 07:49 | -37.13242 | 145.45240 | 23656 ft | 414 kts | 48° |
| 2026-05-04 07:49 | -37.11550 | 145.48186 | 24108 ft | 417 kts | 47° |
| 2026-05-04 07:49 | -37.09851 | 145.51144 | 24538 ft | 420 kts | 47° |
| 2026-05-04 07:50 | -37.08139 | 145.54124 | 24961 ft | 422 kts | 46° |
| 2026-05-04 07:50 | -37.06425 | 145.57110 | 25419 ft | 423 kts | 46° |
| 2026-05-04 07:50 | -37.04702 | 145.60108 | 25850 ft | 426 kts | 45° |
| 2026-05-04 07:50 | -37.02965 | 145.63121 | 26270 ft | 428 kts | 45° |
| 2026-05-04 07:51 | -37.01213 | 145.66157 | 26650 ft | 431 kts | 45° |
| 2026-05-04 07:51 | -36.99476 | 145.69160 | 27024 ft | 434 kts | 45° |
| 2026-05-04 07:51 | -36.97697 | 145.72234 | 27415 ft | 436 kts | 45° |
| 2026-05-04 07:51 | -36.95910 | 145.75324 | 27804 ft | 439 kts | 44° |
| 2026-05-04 07:52 | -36.94114 | 145.78432 | 28192 ft | 442 kts | 44° |
| 2026-05-04 07:52 | -36.92312 | 145.81550 | 28576 ft | 444 kts | 44° |
| 2026-05-04 07:52 | -36.90499 | 145.84683 | 28996 ft | 445 kts | 44° |
| 2026-05-04 07:52 | -36.88676 | 145.87827 | 29350 ft | 448 kts | 44° |
| 2026-05-04 07:53 | -36.86838 | 145.90988 | 29679 ft | 451 kts | 44° |
| 2026-05-04 07:54 | -36.73667 | 146.13583 | 31690 ft | 469 kts | 44° |
| 2026-05-04 07:55 | -36.71732 | 146.16887 | 32061 ft | 469 kts | 44° |
| 2026-05-04 07:55 | -36.69830 | 146.20137 | 32442 ft | 469 kts | 45° |
| 2026-05-04 07:55 | -36.67904 | 146.23433 | 32817 ft | 469 kts | 45° |
| 2026-05-04 07:55 | -36.65981 | 146.26717 | 33183 ft | 469 kts | 45° |
| 2026-05-04 07:56 | -36.64052 | 146.30003 | 33557 ft | 469 kts | 44° |
| 2026-05-04 07:56 | -36.62119 | 146.33287 | 33884 ft | 469 kts | 45° |
| 2026-05-04 07:56 | -36.60183 | 146.36571 | 34183 ft | 470 kts | 45° |
| 2026-05-04 07:56 | -36.58268 | 146.39812 | 34456 ft | 471 kts | 45° |
| 2026-05-04 07:57 | -36.56320 | 146.43108 | 34726 ft | 472 kts | 45° |
| 2026-05-04 07:57 | -36.54370 | 146.46408 | 34999 ft | 473 kts | 45° |
| 2026-05-04 07:57 | -36.52420 | 146.49709 | 35276 ft | 473 kts | 45° |
| 2026-05-04 07:57 | -36.50465 | 146.53018 | 35555 ft | 474 kts | 45° |
| 2026-05-04 07:58 | -36.48509 | 146.56325 | 35787 ft | 475 kts | 45° |
| 2026-05-04 07:58 | -36.46568 | 146.59609 | 36029 ft | 477 kts | 45° |
| 2026-05-04 07:58 | -36.44598 | 146.62935 | 36277 ft | 477 kts | 45° |
| 2026-05-04 07:58 | -36.42621 | 146.66265 | 36527 ft | 478 kts | 45° |
| 2026-05-04 07:59 | -36.40640 | 146.69594 | 36761 ft | 479 kts | 45° |
| 2026-05-04 07:59 | -36.38659 | 146.72917 | 36967 ft | 480 kts | 45° |
| 2026-05-04 07:59 | -36.34693 | 146.79575 | 37020 ft | 478 kts | 45° |
| 2026-05-04 08:00 | -36.30741 | 146.86200 | 37028 ft | 477 kts | 45° |
| 2026-05-04 08:02 | -36.14964 | 147.12500 | 37017 ft | 476 kts | 45° |
| 2026-05-04 08:02 | -36.11033 | 147.19035 | 37049 ft | 476 kts | 44° |
| 2026-05-04 08:03 | -36.07066 | 147.25591 | 37034 ft | 475 kts | 44° |
| 2026-05-04 08:03 | -36.03104 | 147.32128 | 37043 ft | 475 kts | 44° |
| 2026-05-04 08:04 | -35.99139 | 147.38671 | 37034 ft | 476 kts | 44° |
| 2026-05-04 08:04 | -35.95174 | 147.45210 | 37059 ft | 475 kts | 44° |
| 2026-05-04 08:05 | -35.91205 | 147.51749 | 37072 ft | 475 kts | 44° |
| 2026-05-04 08:05 | -35.87230 | 147.58264 | 37076 ft | 475 kts | 44° |
| 2026-05-04 08:06 | -35.83920 | 147.63669 | 37077 ft | 475 kts | 44° |
| 2026-05-04 08:06 | -35.79940 | 147.70169 | 37051 ft | 475 kts | 43° |
| 2026-05-04 08:08 | -35.63994 | 147.96127 | 37053 ft | 475 kts | 43° |
| 2026-05-04 08:11 | -35.45985 | 148.25164 | 37061 ft | 476 kts | 43° |
| 2026-05-04 08:11 | -35.39937 | 148.34894 | 37093 ft | 477 kts | 43° |
| 2026-05-04 08:12 | -35.35926 | 148.41322 | 37073 ft | 477 kts | 43° |
| 2026-05-04 08:12 | -35.31877 | 148.47790 | 37068 ft | 477 kts | 43° |
| 2026-05-04 08:13 | -35.27832 | 148.54247 | 37078 ft | 477 kts | 43° |
| 2026-05-04 08:13 | -35.23812 | 148.60655 | 37099 ft | 477 kts | 43° |
| 2026-05-04 08:14 | -35.19761 | 148.67089 | 37070 ft | 477 kts | 43° |
| 2026-05-04 08:16 | -35.03551 | 148.92728 | 37079 ft | 476 kts | 43° |
| 2026-05-04 08:16 | -34.99490 | 148.99130 | 37087 ft | 476 kts | 43° |
| 2026-05-04 08:17 | -34.95428 | 149.05515 | 37076 ft | 476 kts | 43° |
| 2026-05-04 08:17 | -34.91380 | 149.11861 | 36575 ft | 479 kts | 43° |
| 2026-05-04 08:19 | -34.77064 | 149.34249 | 32582 ft | 470 kts | 43° |
| 2026-05-04 08:19 | -34.75084 | 149.37335 | 32049 ft | 467 kts | 43° |
| 2026-05-04 08:20 | -34.73283 | 149.40652 | 31576 ft | 473 kts | 53° |
| 2026-05-04 08:20 | -34.71745 | 149.44179 | 31061 ft | 470 kts | 53° |
| 2026-05-04 08:20 | -34.70227 | 149.47674 | 30679 ft | 463 kts | 53° |
| 2026-05-04 08:20 | -34.68720 | 149.51141 | 30164 ft | 460 kts | 53° |
| 2026-05-04 08:21 | -34.67240 | 149.54550 | 29701 ft | 454 kts | 53° |
| 2026-05-04 08:21 | -34.65766 | 149.57930 | 29072 ft | 451 kts | 53° |
| 2026-05-04 08:21 | -34.64377 | 149.61103 | 28599 ft | 445 kts | 53° |
| 2026-05-04 08:21 | -34.62932 | 149.64402 | 28118 ft | 440 kts | 53° |
| 2026-05-04 08:22 | -34.61501 | 149.67666 | 27653 ft | 434 kts | 53° |
| 2026-05-04 08:22 | -34.60093 | 149.70881 | 27231 ft | 428 kts | 53° |
| 2026-05-04 08:24 | -34.50541 | 149.92543 | 24197 ft | 408 kts | 53° |
| 2026-05-04 08:24 | -34.49198 | 149.95579 | 23739 ft | 407 kts | 53° |
| 2026-05-04 08:24 | -34.47857 | 149.98611 | 23225 ft | 406 kts | 53° |
| 2026-05-04 08:24 | -34.46542 | 150.01587 | 22757 ft | 403 kts | 53° |
| 2026-05-04 08:25 | -34.45221 | 150.04572 | 22292 ft | 400 kts | 53° |
| 2026-05-04 08:25 | -34.43903 | 150.07548 | 21812 ft | 397 kts | 54° |
| 2026-05-04 08:25 | -34.42600 | 150.10491 | 21344 ft | 394 kts | 54° |
| 2026-05-04 08:25 | -34.41303 | 150.13416 | 20867 ft | 392 kts | 54° |
| 2026-05-04 08:26 | -34.40028 | 150.16283 | 20407 ft | 389 kts | 54° |
| 2026-05-04 08:27 | -34.31259 | 150.35935 | 17109 ft | 368 kts | 55° |
| 2026-05-04 08:28 | -34.30047 | 150.38646 | 16654 ft | 363 kts | 55° |
| 2026-05-04 08:28 | -34.28847 | 150.41329 | 16198 ft | 360 kts | 55° |
| 2026-05-04 08:28 | -34.27676 | 150.43945 | 15755 ft | 356 kts | 55° |
| 2026-05-04 08:28 | -34.26498 | 150.46581 | 15302 ft | 353 kts | 55° |
| 2026-05-04 08:29 | -34.25334 | 150.49186 | 14870 ft | 350 kts | 55° |
| 2026-05-04 08:29 | -34.24183 | 150.51763 | 14430 ft | 347 kts | 55° |
| 2026-05-04 08:29 | -34.23052 | 150.54290 | 13979 ft | 344 kts | 55° |
| 2026-05-04 08:31 | -34.15449 | 150.71241 | 11043 ft | 292 kts | 55° |
| 2026-05-04 08:33 | -34.08855 | 150.85834 | 8579 ft | 279 kts | 55° |
| 2026-05-04 08:33 | -34.07930 | 150.87897 | 8311 ft | 279 kts | 55° |
| 2026-05-04 08:35 | -34.03804 | 151.01783 | 7000 ft | 262 kts | 110° |
| 2026-05-04 08:35 | -34.04769 | 151.03643 | 7002 ft | 267 kts | 132° |
| 2026-05-04 08:35 | -34.06056 | 151.05268 | 6999 ft | 267 kts | 133° |
| 2026-05-04 08:35 | -34.07439 | 151.06760 | 7007 ft | 267 kts | 146° |
| 2026-05-04 08:37 | -34.17791 | 151.10272 | 5251 ft | 255 kts | 171° |
| 2026-05-04 08:37 | -34.19525 | 151.10719 | 4966 ft | 254 kts | 170° |
| 2026-05-04 08:37 | -34.21237 | 151.11188 | 4642 ft | 254 kts | 163° |
| 2026-05-04 08:38 | -34.22719 | 151.12288 | 4328 ft | 251 kts | 129° |
| 2026-05-04 08:38 | -34.23569 | 151.14077 | 4103 ft | 238 kts | 106° |
| 2026-05-04 08:38 | -34.24093 | 151.15900 | 3927 ft | 227 kts | 103° |
| 2026-05-04 08:40 | -34.22800 | 151.24692 | 3002 ft | 152 kts | 3° |
| 2026-05-04 08:40 | -34.21759 | 151.24663 | 3000 ft | 149 kts | 346° |
| 2026-05-04 08:40 | -34.20768 | 151.24404 | 2997 ft | 148 kts | 345° |
| 2026-05-04 08:41 | -34.19757 | 151.24140 | 3004 ft | 148 kts | 345° |
| 2026-05-04 08:41 | -34.18751 | 151.23878 | 3003 ft | 147 kts | 346° |
| 2026-05-04 08:41 | -34.17743 | 151.23615 | 3003 ft | 147 kts | 346° |
| 2026-05-04 08:41 | -34.16742 | 151.23353 | 2999 ft | 147 kts | 345° |
| 2026-05-04 08:42 | -34.15753 | 151.23095 | 3000 ft | 147 kts | 346° |
| 2026-05-04 08:42 | -34.14794 | 151.22846 | 2991 ft | 135 kts | 346° |
| 2026-05-04 08:42 | -34.13900 | 151.22613 | 3009 ft | 128 kts | 345° |
| 2026-05-04 08:42 | -34.13050 | 151.22391 | 3011 ft | 125 kts | 345° |
| 2026-05-04 08:43 | -34.12211 | 151.22172 | 2992 ft | 123 kts | 346° |
| 2026-05-04 08:43 | -34.11379 | 151.21955 | 2898 ft | 123 kts | 347° |
| 2026-05-04 08:43 | -34.10531 | 151.21734 | 2771 ft | 124 kts | 348° |
| 2026-05-04 08:43 | -34.09699 | 151.21517 | 2640 ft | 123 kts | 347° |
| 2026-05-04 08:44 | -34.08864 | 151.21300 | 2477 ft | 123 kts | 347° |
| 2026-05-04 08:44 | -34.08011 | 151.21078 | 2314 ft | 125 kts | 349° |
| 2026-05-04 08:46 | -34.02126 | 151.19547 | 1182 ft | 125 kts | 352° |
| 2026-05-04 08:46 | -34.01263 | 151.19322 | 1013 ft | 128 kts | 353° |
| 2026-05-04 08:46 | -34.00395 | 151.19095 | 845 ft | 127 kts | 353° |
| 2026-05-04 08:46 | -33.99518 | 151.18869 | 685 ft | 127 kts | 350° |
| 2026-05-04 08:47 | -33.98650 | 151.18643 | 521 ft | 127 kts | 351° |
| 2026-05-04 08:47 | -33.97781 | 151.18417 | 349 ft | 128 kts | 351° |
| 2026-05-04 08:47 | -33.96916 | 151.18191 | 175 ft | 130 kts | 348° |
| 2026-05-04 08:47 | -33.96027 | 151.17954 | 29 ft | 124 kts | 351° |
| 2026-05-04 08:48 | -33.95400 | 151.17796 | 22 ft | 58 kts | 349° |
| 2026-05-04 08:48 | -33.95039 | 151.17708 | 20 ft | 50 kts | 348° |
| 2026-05-04 08:48 | -33.94749 | 151.17643 | 23 ft | 38 kts | 357° |
| 2026-05-04 08:48 | -33.94560 | 151.17668 | 24 ft | 8 kts | 14° |
| 2026-05-04 08:49 | -33.94527 | 151.17678 | 24 ft | 0 kts | 15° |
| 2026-05-04 08:50 | -33.94226 | 151.17701 | 21 ft | 21 kts | 346° |
| 2026-05-04 08:50 | -33.94079 | 151.17660 | 22 ft | 22 kts | 348° |
| 2026-05-04 08:51 | -33.93920 | 151.17618 | 19 ft | 23 kts | 348° |
| 2026-05-04 08:51 | -33.93769 | 151.17580 | 18 ft | 22 kts | 346° |
| 2026-05-04 08:51 | -33.93627 | 151.17607 | 26 ft | 17 kts | 20° |
| 2026-05-04 08:51 | -33.93546 | 151.17624 | 30 ft | 3 kts | 63° |
| 2026-05-04 08:52 | -33.93555 | 151.17664 | 30 ft | 10 kts | 102° |
| 2026-05-04 08:52 | -33.93557 | 151.17678 | 30 ft | 0 kts | 100° |